createdAt,value
2018-06-30T00:00:16.332Z,15.69
2018-06-30T00:01:16.386Z,15.63
2018-06-30T00:02:16.636Z,15.56
2018-06-30T00:03:16.888Z,15.57
2018-06-30T00:04:17.149Z,15.54
2018-06-30T00:05:16.435Z,15.52
2018-06-30T00:06:16.703Z,15.49
2018-06-30T00:07:16.968Z,15.50
2018-06-30T00:08:16.242Z,15.53
2018-06-30T00:09:16.506Z,15.53
2018-06-30T00:10:16.914Z,15.49
2018-06-30T00:11:16.829Z,15.45
2018-06-30T00:12:17.097Z,15.45
2018-06-30T00:13:16.354Z,15.46
2018-06-30T00:14:16.615Z,15.46
2018-06-30T00:15:16.882Z,15.43
2018-06-30T00:16:17.146Z,15.38
2018-06-30T00:17:16.401Z,15.38
2018-06-30T00:18:16.667Z,15.35
2018-06-30T00:19:16.928Z,15.35
2018-06-30T00:20:16.240Z,15.36
2018-06-30T00:21:16.292Z,15.33
2018-06-30T00:22:16.552Z,15.33
2018-06-30T00:23:16.808Z,15.35
2018-06-30T00:24:17.383Z,15.32
2018-06-30T00:25:16.648Z,15.26
2018-06-30T00:26:16.904Z,15.25
2018-06-30T00:27:17.468Z,15.21
2018-06-30T00:28:16.733Z,15.15
2018-06-30T00:29:17.002Z,15.15
2018-06-30T00:30:16.270Z,15.16
2018-06-30T00:31:16.353Z,15.15
2018-06-30T00:32:16.610Z,15.14
2018-06-30T00:33:16.870Z,15.14
2018-06-30T00:34:17.134Z,15.12
2018-06-30T00:35:16.390Z,15.06
2018-06-30T00:36:16.653Z,15.09
2018-06-30T00:37:16.908Z,15.05
2018-06-30T00:38:17.543Z,15.02
2018-06-30T00:39:16.856Z,15.02
2018-06-30T00:40:17.411Z,14.97
2018-06-30T00:41:17.190Z,14.95
2018-06-30T00:42:16.459Z,14.94
2018-06-30T00:43:16.726Z,14.92
2018-06-30T00:44:16.987Z,14.97
2018-06-30T00:45:16.248Z,14.98
2018-06-30T00:46:16.508Z,14.97
2018-06-30T00:47:16.770Z,14.95
2018-06-30T00:48:17.035Z,14.90
2018-06-30T00:49:16.317Z,14.83
2018-06-30T00:50:16.590Z,14.78
2018-06-30T00:51:16.639Z,14.80
2018-06-30T00:52:16.918Z,14.77
2018-06-30T00:53:16.278Z,14.71
2018-06-30T00:54:16.545Z,14.71
2018-06-30T00:55:16.818Z,14.64
2018-06-30T00:56:17.097Z,14.64
2018-06-30T00:57:16.359Z,14.63
2018-06-30T00:58:16.636Z,14.57
2018-06-30T00:59:16.892Z,14.57
2018-06-30T01:00:17.174Z,14.57
2018-06-30T01:01:16.209Z,14.57
2018-06-30T01:02:16.477Z,14.52
2018-06-30T01:03:16.728Z,14.47
2018-06-30T01:04:16.990Z,14.44
2018-06-30T01:05:16.251Z,14.40
2018-06-30T01:06:16.521Z,14.39
2018-06-30T01:07:16.781Z,14.36
2018-06-30T01:08:17.035Z,14.35
2018-06-30T01:09:16.309Z,14.32
2018-06-30T01:10:16.570Z,14.32
2018-06-30T01:11:16.619Z,14.26
2018-06-30T01:12:16.957Z,14.22
2018-06-30T01:13:16.212Z,14.23
2018-06-30T01:14:16.476Z,14.25
2018-06-30T01:15:16.747Z,14.22
2018-06-30T01:16:17.013Z,14.20
2018-06-30T01:17:16.277Z,14.20
2018-06-30T01:18:16.589Z,14.16
2018-06-30T01:19:16.857Z,14.19
2018-06-30T01:20:17.137Z,14.19
2018-06-30T01:21:16.193Z,14.20
2018-06-30T01:22:16.449Z,14.16
2018-06-30T01:23:16.707Z,14.16
2018-06-30T01:24:16.978Z,14.18
2018-06-30T01:25:16.476Z,14.15
2018-06-30T01:26:16.738Z,14.19
2018-06-30T01:27:16.999Z,14.19
2018-06-30T01:28:16.554Z,14.20
2018-06-30T01:29:16.819Z,14.20
2018-06-30T01:30:17.094Z,14.18
2018-06-30T01:31:17.167Z,14.20
2018-06-30T01:32:16.431Z,14.18
2018-06-30T01:33:16.682Z,14.16
2018-06-30T01:34:16.949Z,14.12
2018-06-30T01:35:16.226Z,14.09
2018-06-30T01:36:16.509Z,14.04
2018-06-30T01:37:16.768Z,14.07
2018-06-30T01:38:17.027Z,14.08
2018-06-30T01:39:16.284Z,14.11
2018-06-30T01:40:16.546Z,14.09
2018-06-30T01:41:16.583Z,14.09
2018-06-30T01:42:16.841Z,14.12
2018-06-30T01:43:17.393Z,14.02
2018-06-30T01:44:16.647Z,14.02
2018-06-30T01:45:16.914Z,14.00
2018-06-30T01:46:17.183Z,14.04
2018-06-30T01:47:16.433Z,14.05
2018-06-30T01:48:16.705Z,14.04
2018-06-30T01:49:16.968Z,14.04
2018-06-30T01:50:16.232Z,14.05
2018-06-30T01:51:16.619Z,14.07
2018-06-30T01:52:16.877Z,14.04
2018-06-30T01:53:17.153Z,14.00
2018-06-30T01:54:16.414Z,14.00
2018-06-30T01:55:16.671Z,13.98
2018-06-30T01:56:16.926Z,13.95
2018-06-30T01:57:17.194Z,13.95
2018-06-30T01:58:16.455Z,13.95
2018-06-30T01:59:16.765Z,13.94
2018-06-30T02:00:17.051Z,13.92
2018-06-30T02:01:17.104Z,13.90
2018-06-30T02:02:16.369Z,13.81
2018-06-30T02:03:16.631Z,13.87
2018-06-30T02:04:16.892Z,13.87
2018-06-30T02:05:17.157Z,13.84
2018-06-30T02:06:16.425Z,13.81
2018-06-30T02:07:16.688Z,13.82
2018-06-30T02:08:16.951Z,13.84
2018-06-30T02:09:16.209Z,13.88
2018-06-30T02:10:16.472Z,13.88
2018-06-30T02:11:16.522Z,13.84
2018-06-30T02:12:16.788Z,13.85
2018-06-30T02:13:17.050Z,13.84
2018-06-30T02:14:16.313Z,13.85
2018-06-30T02:15:16.590Z,13.84
2018-06-30T02:16:16.853Z,13.84
2018-06-30T02:17:17.365Z,13.84
2018-06-30T02:18:16.640Z,13.82
2018-06-30T02:19:16.907Z,13.82
2018-06-30T02:20:17.180Z,13.73
2018-06-30T02:21:16.243Z,13.71
2018-06-30T02:22:16.509Z,13.73
2018-06-30T02:23:16.773Z,13.74
2018-06-30T02:24:17.028Z,13.74
2018-06-30T02:25:16.289Z,13.74
2018-06-30T02:26:16.544Z,13.70
2018-06-30T02:27:16.810Z,13.67
2018-06-30T02:28:17.068Z,13.68
2018-06-30T02:29:16.325Z,13.67
2018-06-30T02:30:16.606Z,13.65
2018-06-30T02:31:17.161Z,13.64
2018-06-30T02:32:16.434Z,13.63
2018-06-30T02:33:16.703Z,13.63
2018-06-30T02:34:16.969Z,13.63
2018-06-30T02:35:16.229Z,13.61
2018-06-30T02:36:17.008Z,13.65
2018-06-30T02:37:16.276Z,13.67
2018-06-30T02:38:16.561Z,13.60
2018-06-30T02:39:16.847Z,13.57
2018-06-30T02:40:17.123Z,13.60
2018-06-30T02:41:16.268Z,13.60
2018-06-30T02:42:16.533Z,13.54
2018-06-30T02:43:16.800Z,13.57
2018-06-30T02:44:17.064Z,13.53
2018-06-30T02:45:16.338Z,13.49
2018-06-30T02:46:16.605Z,13.47
2018-06-30T02:47:16.869Z,13.47
2018-06-30T02:48:17.133Z,13.46
2018-06-30T02:49:16.394Z,13.50
2018-06-30T02:50:16.654Z,13.50
2018-06-30T02:51:16.699Z,13.49
2018-06-30T02:52:16.962Z,13.46
2018-06-30T02:53:16.490Z,13.44
2018-06-30T02:54:16.767Z,13.43
2018-06-30T02:55:17.051Z,13.40
2018-06-30T02:56:16.322Z,13.40
2018-06-30T02:57:16.583Z,13.42
2018-06-30T02:58:16.845Z,13.40
2018-06-30T02:59:17.099Z,13.37
2018-06-30T03:00:16.375Z,13.40
2018-06-30T03:01:16.424Z,13.39
2018-06-30T03:02:16.693Z,13.39
2018-06-30T03:03:17.001Z,13.36
2018-06-30T03:04:16.260Z,13.33
2018-06-30T03:05:16.519Z,13.33
2018-06-30T03:06:16.794Z,13.34
2018-06-30T03:07:17.046Z,13.32
2018-06-30T03:08:16.305Z,13.29
2018-06-30T03:09:16.562Z,13.36
2018-06-30T03:10:16.831Z,13.34
2018-06-30T03:11:16.876Z,13.32
2018-06-30T03:12:17.136Z,13.29
2018-06-30T03:13:16.401Z,13.29
2018-06-30T03:14:16.661Z,13.30
2018-06-30T03:15:16.929Z,13.30
2018-06-30T03:16:17.195Z,13.27
2018-06-30T03:17:16.446Z,13.27
2018-06-30T03:18:16.718Z,13.27
2018-06-30T03:19:17.010Z,13.26
2018-06-30T03:20:16.282Z,13.22
2018-06-30T03:21:16.335Z,13.25
2018-06-30T03:22:16.595Z,13.22
2018-06-30T03:23:16.857Z,13.21
2018-06-30T03:24:17.128Z,13.18
2018-06-30T03:25:16.395Z,13.19
2018-06-30T03:26:16.652Z,13.19
2018-06-30T03:27:16.917Z,13.19
2018-06-30T03:28:17.177Z,13.19
2018-06-30T03:29:16.437Z,13.16
2018-06-30T03:30:16.713Z,13.21
2018-06-30T03:31:16.765Z,13.21
2018-06-30T03:32:17.025Z,13.16
2018-06-30T03:33:16.284Z,13.19
2018-06-30T03:34:16.545Z,13.18
2018-06-30T03:35:17.106Z,13.14
2018-06-30T03:36:16.366Z,13.18
2018-06-30T03:37:16.639Z,13.12
2018-06-30T03:38:16.897Z,13.14
2018-06-30T03:39:17.416Z,13.15
2018-06-30T03:40:16.672Z,13.16
2018-06-30T03:41:16.736Z,13.19
2018-06-30T03:42:17.000Z,13.16
2018-06-30T03:43:16.268Z,13.16
2018-06-30T03:44:16.530Z,13.21
2018-06-30T03:45:16.794Z,13.21
2018-06-30T03:46:17.078Z,13.25
2018-06-30T03:47:16.455Z,13.27
2018-06-30T03:48:16.723Z,13.29
2018-06-30T03:49:16.985Z,13.29
2018-06-30T03:50:16.269Z,13.29
2018-06-30T03:51:16.334Z,13.29
2018-06-30T03:52:16.610Z,13.32
2018-06-30T03:53:16.879Z,13.33
2018-06-30T03:54:17.157Z,13.36
2018-06-30T03:55:16.413Z,13.37
2018-06-30T03:56:16.669Z,13.37
2018-06-30T03:57:16.936Z,13.36
2018-06-30T03:58:16.195Z,13.36
2018-06-30T03:59:16.464Z,13.37
2018-06-30T04:00:16.755Z,13.42
2018-06-30T04:01:16.776Z,13.43
2018-06-30T04:02:17.025Z,13.47
2018-06-30T04:03:16.285Z,13.50
2018-06-30T04:04:16.546Z,13.49
2018-06-30T04:05:16.814Z,13.53
2018-06-30T04:06:17.082Z,13.61
2018-06-30T04:07:16.346Z,13.61
2018-06-30T04:08:16.608Z,13.64
2018-06-30T04:09:16.867Z,13.73
2018-06-30T04:10:17.138Z,13.73
2018-06-30T04:11:17.203Z,13.74
2018-06-30T04:12:16.471Z,13.78
2018-06-30T04:13:16.726Z,13.78
2018-06-30T04:14:16.995Z,13.80
2018-06-30T04:15:16.283Z,13.80
2018-06-30T04:16:16.559Z,13.81
2018-06-30T04:17:16.817Z,13.81
2018-06-30T04:18:17.070Z,13.77
2018-06-30T04:19:16.330Z,13.78
2018-06-30T04:20:16.598Z,13.82
2018-06-30T04:21:16.657Z,13.85
2018-06-30T04:22:16.935Z,13.82
2018-06-30T04:23:17.194Z,13.82
2018-06-30T04:24:16.457Z,13.80
2018-06-30T04:25:16.725Z,13.82
2018-06-30T04:26:16.994Z,13.82
2018-06-30T04:27:16.259Z,13.87
2018-06-30T04:28:16.524Z,13.88
2018-06-30T04:29:16.789Z,13.92
2018-06-30T04:30:17.049Z,13.94
2018-06-30T04:31:17.121Z,13.95
2018-06-30T04:32:16.385Z,13.95
2018-06-30T04:33:16.650Z,14.01
2018-06-30T04:34:16.914Z,14.02
2018-06-30T04:35:17.190Z,14.07
2018-06-30T04:36:16.448Z,14.12
2018-06-30T04:37:16.712Z,14.13
2018-06-30T04:38:16.997Z,14.15
2018-06-30T04:39:16.269Z,14.15
2018-06-30T04:40:16.529Z,14.23
2018-06-30T04:41:16.596Z,14.23
2018-06-30T04:42:16.867Z,14.25
2018-06-30T04:43:17.129Z,14.26
2018-06-30T04:44:16.398Z,14.32
2018-06-30T04:45:16.706Z,14.36
2018-06-30T04:46:17.165Z,14.36
2018-06-30T04:47:16.429Z,14.43
2018-06-30T04:48:16.699Z,14.46
2018-06-30T04:49:16.957Z,14.52
2018-06-30T04:50:16.226Z,14.60
2018-06-30T04:51:16.276Z,14.63
2018-06-30T04:52:16.532Z,14.68
2018-06-30T04:53:16.792Z,14.71
2018-06-30T04:54:17.075Z,14.74
2018-06-30T04:55:16.347Z,14.81
2018-06-30T04:56:16.608Z,14.85
2018-06-30T04:57:16.868Z,14.87
2018-06-30T04:58:17.135Z,14.92
2018-06-30T04:59:16.388Z,14.95
2018-06-30T05:00:16.654Z,15.05
2018-06-30T05:01:16.745Z,15.05
2018-06-30T05:02:17.005Z,15.18
2018-06-30T05:03:16.256Z,15.23
2018-06-30T05:04:16.512Z,15.41
2018-06-30T05:05:16.773Z,15.43
2018-06-30T05:06:17.039Z,15.46
2018-06-30T05:07:16.311Z,15.59
2018-06-30T05:08:16.570Z,15.64
2018-06-30T05:09:16.840Z,15.71
2018-06-30T05:10:17.136Z,15.73
2018-06-30T05:11:16.266Z,15.90
2018-06-30T05:12:16.532Z,15.91
2018-06-30T05:13:16.791Z,15.97
2018-06-30T05:14:17.056Z,16.04
2018-06-30T05:15:16.313Z,16.17
2018-06-30T05:16:16.564Z,16.17
2018-06-30T05:17:16.815Z,16.15
2018-06-30T05:18:17.080Z,16.21
2018-06-30T05:19:16.335Z,16.25
2018-06-30T05:20:16.629Z,16.35
2018-06-30T05:21:16.686Z,16.29
2018-06-30T05:22:16.949Z,16.29
2018-06-30T05:23:16.221Z,16.57
2018-06-30T05:24:16.492Z,16.63
2018-06-30T05:25:16.759Z,16.68
2018-06-30T05:26:17.048Z,16.81
2018-06-30T05:27:16.304Z,17.03
2018-06-30T05:28:16.565Z,17.10
2018-06-30T05:29:16.852Z,17.10
2018-06-30T05:30:17.123Z,17.14
2018-06-30T05:31:17.194Z,17.24
2018-06-30T05:32:16.456Z,17.32
2018-06-30T05:33:16.736Z,17.59
2018-06-30T05:34:17.041Z,17.53
2018-06-30T05:35:16.317Z,17.56
2018-06-30T05:36:16.606Z,17.98
2018-06-30T05:37:16.877Z,18.08
2018-06-30T05:38:17.164Z,17.98
2018-06-30T05:39:16.433Z,18.07
2018-06-30T05:40:16.697Z,17.98
2018-06-30T05:41:16.795Z,17.96
2018-06-30T05:42:16.278Z,17.96
2018-06-30T05:43:16.542Z,18.03
2018-06-30T05:44:16.856Z,18.01
2018-06-30T05:45:17.120Z,18.00
2018-06-30T05:46:16.381Z,18.01
2018-06-30T05:47:16.652Z,18.11
2018-06-30T05:48:16.917Z,18.12
2018-06-30T05:49:17.200Z,18.19
2018-06-30T05:50:16.464Z,18.22
2018-06-30T05:51:16.526Z,18.22
2018-06-30T05:52:16.762Z,18.22
2018-06-30T05:53:17.047Z,18.35
2018-06-30T05:54:16.470Z,18.39
2018-06-30T05:55:16.731Z,18.41
2018-06-30T05:56:16.989Z,18.42
2018-06-30T05:57:16.253Z,18.44
2018-06-30T05:58:16.525Z,18.44
2018-06-30T05:59:16.842Z,18.31
2018-06-30T06:00:17.166Z,18.35
2018-06-30T06:01:16.215Z,18.42
2018-06-30T06:02:16.486Z,18.46
2018-06-30T06:03:16.740Z,18.55
2018-06-30T06:04:16.999Z,18.48
2018-06-30T06:05:16.279Z,18.46
2018-06-30T06:06:16.538Z,18.51
2018-06-30T06:07:16.840Z,18.51
2018-06-30T06:08:17.109Z,18.52
2018-06-30T06:09:16.371Z,18.48
2018-06-30T06:10:16.646Z,18.45
2018-06-30T06:11:16.690Z,18.44
2018-06-30T06:12:16.952Z,18.51
2018-06-30T06:13:16.214Z,18.66
2018-06-30T06:14:16.494Z,18.72
2018-06-30T06:15:16.822Z,18.75
2018-06-30T06:16:17.169Z,18.67
2018-06-30T06:17:16.471Z,18.62
2018-06-30T06:18:16.739Z,18.66
2018-06-30T06:19:17.013Z,18.66
2018-06-30T06:20:16.524Z,18.84
2018-06-30T06:21:16.582Z,18.86
2018-06-30T06:22:17.057Z,18.88
2018-06-30T06:23:16.318Z,18.84
2018-06-30T06:24:16.584Z,18.94
2018-06-30T06:25:16.860Z,18.93
2018-06-30T06:26:17.117Z,18.97
2018-06-30T06:27:16.374Z,18.95
2018-06-30T06:28:16.635Z,19.00
2018-06-30T06:29:16.901Z,18.98
2018-06-30T06:30:17.939Z,18.83
2018-06-30T06:31:16.220Z,18.87
2018-06-30T06:32:16.474Z,19.00
2018-06-30T06:33:16.737Z,19.08
2018-06-30T06:34:16.999Z,19.05
2018-06-30T06:35:16.269Z,19.17
2018-06-30T06:36:16.533Z,19.24
2018-06-30T06:37:16.790Z,19.28
2018-06-30T06:38:17.053Z,19.21
2018-06-30T06:39:16.323Z,19.27
2018-06-30T06:40:16.601Z,19.27
2018-06-30T06:41:16.648Z,19.46
2018-06-30T06:42:16.909Z,19.51
2018-06-30T06:43:17.170Z,19.58
2018-06-30T06:44:16.431Z,19.52
2018-06-30T06:45:16.694Z,19.46
2018-06-30T06:46:16.959Z,19.41
2018-06-30T06:47:16.216Z,19.38
2018-06-30T06:48:16.473Z,19.51
2018-06-30T06:49:16.737Z,19.49
2018-06-30T06:50:17.009Z,19.59
2018-06-30T06:51:17.048Z,19.65
2018-06-30T06:52:16.303Z,19.73
2018-06-30T06:53:16.576Z,19.65
2018-06-30T06:54:16.835Z,19.66
2018-06-30T06:55:17.109Z,19.66
2018-06-30T06:56:16.405Z,19.73
2018-06-30T06:57:16.700Z,19.74
2018-06-30T06:58:16.959Z,19.55
2018-06-30T06:59:16.218Z,19.58
2018-06-30T07:00:16.505Z,19.59
2018-06-30T07:01:16.849Z,19.56
2018-06-30T07:02:17.132Z,19.74
2018-06-30T07:03:16.390Z,19.84
2018-06-30T07:04:16.650Z,19.84
2018-06-30T07:05:16.925Z,19.83
2018-06-30T07:06:17.196Z,19.86
2018-06-30T07:07:16.459Z,19.74
2018-06-30T07:08:16.709Z,19.73
2018-06-30T07:09:16.974Z,19.87
2018-06-30T07:10:16.241Z,19.87
2018-06-30T07:11:16.304Z,19.86
2018-06-30T07:12:16.558Z,20.07
2018-06-30T07:13:16.824Z,19.89
2018-06-30T07:14:17.087Z,19.87
2018-06-30T07:15:16.352Z,19.76
2018-06-30T07:16:16.614Z,19.89
2018-06-30T07:17:16.876Z,20.00
2018-06-30T07:18:17.163Z,20.04
2018-06-30T07:19:16.481Z,19.81
2018-06-30T07:20:16.848Z,19.81
2018-06-30T07:21:16.887Z,20.03
2018-06-30T07:22:17.152Z,20.25
2018-06-30T07:23:16.415Z,20.23
2018-06-30T07:24:16.677Z,20.11
2018-06-30T07:25:16.937Z,20.18
2018-06-30T07:26:17.202Z,20.18
2018-06-30T07:27:16.471Z,20.28
2018-06-30T07:28:16.728Z,20.28
2018-06-30T07:29:16.993Z,20.25
2018-06-30T07:30:16.267Z,20.35
2018-06-30T07:31:16.326Z,20.48
2018-06-30T07:32:16.597Z,20.37
2018-06-30T07:33:16.867Z,20.31
2018-06-30T07:34:17.145Z,20.29
2018-06-30T07:35:16.406Z,20.37
2018-06-30T07:36:16.676Z,20.38
2018-06-30T07:37:16.963Z,20.42
2018-06-30T07:38:16.243Z,20.46
2018-06-30T07:39:16.506Z,20.41
2018-06-30T07:40:16.783Z,20.56
2018-06-30T07:41:16.859Z,20.68
2018-06-30T07:42:17.123Z,20.66
2018-06-30T07:43:16.444Z,20.82
2018-06-30T07:44:16.808Z,21.15
2018-06-30T07:45:17.072Z,20.79
2018-06-30T07:46:16.335Z,20.75
2018-06-30T07:47:16.596Z,20.54
2018-06-30T07:48:16.870Z,20.48
2018-06-30T07:49:17.122Z,20.39
2018-06-30T07:50:16.437Z,20.52
2018-06-30T07:51:16.439Z,20.59
2018-06-30T07:52:16.698Z,20.71
2018-06-30T07:53:16.960Z,20.80
2018-06-30T07:54:16.232Z,20.76
2018-06-30T07:55:16.501Z,20.63
2018-06-30T07:56:16.766Z,20.62
2018-06-30T07:57:17.034Z,20.79
2018-06-30T07:58:16.296Z,20.92
2018-06-30T07:59:16.557Z,20.83
2018-06-30T08:00:16.843Z,20.76
2018-06-30T08:01:16.876Z,20.75
2018-06-30T08:02:17.145Z,20.86
2018-06-30T08:03:16.410Z,20.90
2018-06-30T08:04:16.667Z,20.96
2018-06-30T08:05:16.926Z,21.11
2018-06-30T08:06:17.209Z,21.41
2018-06-30T08:07:16.521Z,21.30
2018-06-30T08:08:16.828Z,21.49
2018-06-30T08:09:17.094Z,21.52
2018-06-30T08:10:16.370Z,21.62
2018-06-30T08:11:16.425Z,21.51
2018-06-30T08:12:16.683Z,21.17
2018-06-30T08:13:16.937Z,21.33
2018-06-30T08:14:16.202Z,21.40
2018-06-30T08:15:16.475Z,21.40
2018-06-30T08:16:16.736Z,21.18
2018-06-30T08:17:17.001Z,21.30
2018-06-30T08:18:16.279Z,20.96
2018-06-30T08:19:16.540Z,20.94
2018-06-30T08:20:16.818Z,21.45
2018-06-30T08:21:17.014Z,21.62
2018-06-30T08:22:16.383Z,21.96
2018-06-30T08:23:16.633Z,21.99
2018-06-30T08:24:16.898Z,21.69
2018-06-30T08:25:17.167Z,21.95
2018-06-30T08:26:16.436Z,21.92
2018-06-30T08:27:16.693Z,22.19
2018-06-30T08:28:16.950Z,22.50
2018-06-30T08:29:16.216Z,22.41
2018-06-30T08:30:16.484Z,22.51
2018-06-30T08:31:16.552Z,22.88
2018-06-30T08:32:16.809Z,22.96
2018-06-30T08:33:17.076Z,23.23
2018-06-30T08:34:16.334Z,22.71
2018-06-30T08:35:16.596Z,21.89
2018-06-30T08:36:16.904Z,22.28
2018-06-30T08:37:16.285Z,22.60
2018-06-30T08:38:16.554Z,22.93
2018-06-30T08:39:16.813Z,22.53
2018-06-30T08:40:17.083Z,22.13
2018-06-30T08:41:17.141Z,22.65
2018-06-30T08:42:16.399Z,22.13
2018-06-30T08:43:16.664Z,22.13
2018-06-30T08:44:16.928Z,23.37
2018-06-30T08:45:17.200Z,23.30
2018-06-30T08:46:16.470Z,22.78
2018-06-30T08:47:16.725Z,22.64
2018-06-30T08:48:16.991Z,22.95
2018-06-30T08:49:16.263Z,23.71
2018-06-30T08:50:16.536Z,23.00
2018-06-30T08:51:16.726Z,23.07
2018-06-30T08:52:17.081Z,23.26
2018-06-30T08:53:16.341Z,23.19
2018-06-30T08:54:16.628Z,23.18
2018-06-30T08:55:16.993Z,23.48
2018-06-30T08:56:16.294Z,22.13
2018-06-30T08:57:16.562Z,22.05
2018-06-30T08:58:16.816Z,22.74
2018-06-30T08:59:17.090Z,23.07
2018-06-30T09:00:16.353Z,23.62
2018-06-30T09:01:16.413Z,23.89
2018-06-30T09:02:16.688Z,23.19
2018-06-30T09:03:16.947Z,23.54
2018-06-30T09:04:16.204Z,24.20
2018-06-30T09:05:16.458Z,24.33
2018-06-30T09:06:16.780Z,22.99
2018-06-30T09:07:16.220Z,22.81
2018-06-30T09:08:16.480Z,23.13
2018-06-30T09:09:16.748Z,23.26
2018-06-30T09:10:17.027Z,23.36
2018-06-30T09:11:17.075Z,23.75
2018-06-30T09:12:16.380Z,24.08
2018-06-30T09:13:16.742Z,24.36
2018-06-30T09:14:17.003Z,23.73
2018-06-30T09:15:16.260Z,24.05
2018-06-30T09:16:16.592Z,24.23
2018-06-30T09:17:16.948Z,24.13
2018-06-30T09:18:16.206Z,24.44
2018-06-30T09:19:16.473Z,24.84
2018-06-30T09:20:16.825Z,24.85
2018-06-30T09:21:16.786Z,23.78
2018-06-30T09:22:17.057Z,23.65
2018-06-30T09:23:16.326Z,24.11
2018-06-30T09:24:16.671Z,24.20
2018-06-30T09:25:17.157Z,24.63
2018-06-30T09:26:16.432Z,24.72
2018-06-30T09:27:16.701Z,24.67
2018-06-30T09:28:16.969Z,25.26
2018-06-30T09:29:16.233Z,25.22
2018-06-30T09:30:16.505Z,23.75
2018-06-30T09:31:16.565Z,23.87
2018-06-30T09:32:16.830Z,24.36
2018-06-30T09:33:17.091Z,24.38
2018-06-30T09:34:16.352Z,25.09
2018-06-30T09:35:16.612Z,24.75
2018-06-30T09:36:16.873Z,24.87
2018-06-30T09:37:17.142Z,24.81
2018-06-30T09:38:16.406Z,23.32
2018-06-30T09:39:16.662Z,23.84
2018-06-30T09:40:16.936Z,24.27
2018-06-30T09:41:16.998Z,24.74
2018-06-30T09:42:16.274Z,25.01
2018-06-30T09:43:16.550Z,25.46
2018-06-30T09:44:16.873Z,25.32
2018-06-30T09:45:17.205Z,24.23
2018-06-30T09:46:16.472Z,24.54
2018-06-30T09:47:16.736Z,25.04
2018-06-30T09:48:16.994Z,25.55
2018-06-30T09:49:16.247Z,24.95
2018-06-30T09:50:16.522Z,23.78
2018-06-30T09:51:16.575Z,23.47
2018-06-30T09:52:16.846Z,24.56
2018-06-30T09:53:17.115Z,24.32
2018-06-30T09:54:16.386Z,24.30
2018-06-30T09:55:16.645Z,24.98
2018-06-30T09:56:16.914Z,25.30
2018-06-30T09:57:17.198Z,24.02
2018-06-30T09:58:16.460Z,24.13
2018-06-30T09:59:16.717Z,24.94
2018-06-30T10:00:16.990Z,24.54
2018-06-30T10:01:17.024Z,24.54
2018-06-30T10:02:16.290Z,24.27
2018-06-30T10:03:16.551Z,24.57
2018-06-30T10:04:16.803Z,23.80
2018-06-30T10:05:17.065Z,23.65
2018-06-30T10:06:16.331Z,24.67
2018-06-30T10:07:16.591Z,24.82
2018-06-30T10:08:16.848Z,24.53
2018-06-30T10:09:17.121Z,23.96
2018-06-30T10:10:16.384Z,23.95
2018-06-30T10:11:16.425Z,23.39
2018-06-30T10:12:16.690Z,23.69
2018-06-30T10:13:16.957Z,24.54
2018-06-30T10:14:16.213Z,23.84
2018-06-30T10:15:16.494Z,23.60
2018-06-30T10:16:16.747Z,23.78
2018-06-30T10:17:17.014Z,24.04
2018-06-30T10:18:16.334Z,23.92
2018-06-30T10:19:16.710Z,24.12
2018-06-30T10:20:16.234Z,23.95
2018-06-30T10:21:16.395Z,24.13
2018-06-30T10:22:16.800Z,24.35
2018-06-30T10:23:17.067Z,25.07
2018-06-30T10:24:16.331Z,25.08
2018-06-30T10:25:16.590Z,24.68
2018-06-30T10:26:16.855Z,24.89
2018-06-30T10:27:17.106Z,24.94
2018-06-30T10:28:16.375Z,24.95
2018-06-30T10:29:16.958Z,25.08
2018-06-30T10:30:16.232Z,24.70
2018-06-30T10:31:16.282Z,23.99
2018-06-30T10:32:16.712Z,24.40
2018-06-30T10:33:16.982Z,24.51
2018-06-30T10:34:16.251Z,24.44
2018-06-30T10:35:16.513Z,23.98
2018-06-30T10:36:16.788Z,23.74
2018-06-30T10:37:17.061Z,23.69
2018-06-30T10:38:16.318Z,23.68
2018-06-30T10:39:16.582Z,23.74
2018-06-30T10:40:16.868Z,23.78
2018-06-30T10:41:16.911Z,23.56
2018-06-30T10:42:17.249Z,23.41
2018-06-30T10:43:16.689Z,24.02
2018-06-30T10:44:16.952Z,23.92
2018-06-30T10:45:16.238Z,23.73
2018-06-30T10:46:16.503Z,23.75
2018-06-30T10:47:16.768Z,23.56
2018-06-30T10:48:17.030Z,23.39
2018-06-30T10:49:16.293Z,23.65
2018-06-30T10:50:16.562Z,23.96
2018-06-30T10:51:16.653Z,24.05
2018-06-30T10:52:16.912Z,23.98
2018-06-30T10:53:17.194Z,23.94
2018-06-30T10:54:16.449Z,24.38
2018-06-30T10:55:16.737Z,23.85
2018-06-30T10:56:17.099Z,24.23
2018-06-30T10:57:16.360Z,24.63
2018-06-30T10:58:16.617Z,24.20
2018-06-30T10:59:16.882Z,24.30
2018-06-30T11:00:17.595Z,23.92
2018-06-30T11:01:16.214Z,24.09
2018-06-30T11:02:16.484Z,23.80
2018-06-30T11:03:16.749Z,24.05
2018-06-30T11:04:17.980Z,24.77
2018-06-30T11:05:16.602Z,24.63
2018-06-30T11:06:16.980Z,24.75
2018-06-30T11:07:16.245Z,24.66
2018-06-30T11:08:16.511Z,25.19
2018-06-30T11:09:16.782Z,25.21
2018-06-30T11:10:17.049Z,25.32
2018-06-30T11:11:17.087Z,24.35
2018-06-30T11:12:16.345Z,24.77
2018-06-30T11:13:16.608Z,24.68
2018-06-30T11:14:16.873Z,23.61
2018-06-30T11:15:17.132Z,23.61
2018-06-30T11:16:16.418Z,23.22
2018-06-30T11:17:16.677Z,24.42
2018-06-30T11:18:16.950Z,24.59
2018-06-30T11:19:16.210Z,24.85
2018-06-30T11:20:16.498Z,24.80
2018-06-30T11:21:16.530Z,25.21
2018-06-30T11:22:16.792Z,25.18
2018-06-30T11:23:17.089Z,24.61
2018-06-30T11:24:16.341Z,25.14
2018-06-30T11:25:16.609Z,25.47
2018-06-30T11:26:16.876Z,24.38
2018-06-30T11:27:17.145Z,24.68
2018-06-30T11:28:16.410Z,24.26
2018-06-30T11:29:16.668Z,24.26
2018-06-30T11:30:16.936Z,24.23
2018-06-30T11:31:17.000Z,24.26
2018-06-30T11:32:16.550Z,24.68
2018-06-30T11:33:16.815Z,24.13
2018-06-30T11:34:17.068Z,24.11
2018-06-30T11:35:16.376Z,24.15
2018-06-30T11:36:16.637Z,24.44
2018-06-30T11:37:16.900Z,24.68
2018-06-30T11:38:17.156Z,24.51
2018-06-30T11:39:16.421Z,24.44
2018-06-30T11:40:16.689Z,24.05
2018-06-30T11:41:16.743Z,24.63
2018-06-30T11:42:17.006Z,24.63
2018-06-30T11:43:16.270Z,24.78
2018-06-30T11:44:16.538Z,24.61
2018-06-30T11:45:16.801Z,24.46
2018-06-30T11:46:17.060Z,24.27
2018-06-30T11:47:16.591Z,24.13
2018-06-30T11:48:16.853Z,24.04
2018-06-30T11:49:17.119Z,24.11
2018-06-30T11:50:16.389Z,24.44
2018-06-30T11:51:16.453Z,24.67
2018-06-30T11:52:16.717Z,25.18
2018-06-30T11:53:16.973Z,24.78
2018-06-30T11:54:16.232Z,24.59
2018-06-30T11:55:16.488Z,24.67
2018-06-30T11:56:16.749Z,24.88
2018-06-30T11:57:17.011Z,25.12
2018-06-30T11:58:16.275Z,25.40
2018-06-30T11:59:16.549Z,24.88
2018-06-30T12:00:16.857Z,25.09
2018-06-30T12:01:16.855Z,25.37
2018-06-30T12:02:17.141Z,25.16
2018-06-30T12:03:16.406Z,25.30
2018-06-30T12:04:16.664Z,25.15
2018-06-30T12:05:16.938Z,25.30
2018-06-30T12:06:16.206Z,24.91
2018-06-30T12:07:16.477Z,24.72
2018-06-30T12:08:16.756Z,24.81
2018-06-30T12:09:17.048Z,25.02
2018-06-30T12:10:16.361Z,25.18
2018-06-30T12:11:16.415Z,25.05
2018-06-30T12:12:16.729Z,25.33
2018-06-30T12:13:16.987Z,25.08
2018-06-30T12:14:16.254Z,25.21
2018-06-30T12:15:16.526Z,25.14
2018-06-30T12:16:16.792Z,25.16
2018-06-30T12:17:17.048Z,25.18
2018-06-30T12:18:16.320Z,25.16
2018-06-30T12:19:16.613Z,25.08
2018-06-30T12:20:16.878Z,25.08
2018-06-30T12:21:16.919Z,24.67
2018-06-30T12:22:17.178Z,24.54
2018-06-30T12:23:16.446Z,24.80
2018-06-30T12:24:16.713Z,25.07
2018-06-30T12:25:16.977Z,24.54
2018-06-30T12:26:16.247Z,24.42
2018-06-30T12:27:16.515Z,24.64
2018-06-30T12:28:16.785Z,24.68
2018-06-30T12:29:17.043Z,25.57
2018-06-30T12:30:16.429Z,25.37
2018-06-30T12:31:16.380Z,25.28
2018-06-30T12:32:16.656Z,25.28
2018-06-30T12:33:17.008Z,25.42
2018-06-30T12:34:16.291Z,25.30
2018-06-30T12:35:16.551Z,24.87
2018-06-30T12:36:16.822Z,24.89
2018-06-30T12:37:17.085Z,25.25
2018-06-30T12:38:16.341Z,25.25
2018-06-30T12:39:16.602Z,25.24
2018-06-30T12:40:16.869Z,25.46
2018-06-30T12:41:16.983Z,25.29
2018-06-30T12:42:16.246Z,25.42
2018-06-30T12:43:16.509Z,25.57
2018-06-30T12:44:16.768Z,25.57
2018-06-30T12:45:17.049Z,25.56
2018-06-30T12:46:16.313Z,25.59
2018-06-30T12:47:16.587Z,25.21
2018-06-30T12:48:16.849Z,25.09
2018-06-30T12:49:17.127Z,25.25
2018-06-30T12:50:16.391Z,25.40
2018-06-30T12:51:16.447Z,25.36
2018-06-30T12:52:16.717Z,25.46